Latest Weather Observations for Hogan Island

IDV60801

Issued at 11:32 pm EDT Friday 20 October 2017 (issued every 30 minutes, with the page automatically refreshed every 10 minutes)

About weather observations | Map of weather stations | Latest weather observations for VIC | Other Formats
Station Details ID: 200838 Name: HOGAN ISLAND Lat: -39.22 Lon: 146.98 Height: 116.0 m
Data from the previous 72 hours. | See also: Recent months at Hogan Island
Date/Time
EDT
Temp
°C
App
Temp
°C
Dew
Point
°C
Rel
Hum
%
Delta-T
°C
Wind Press
QNH
hPa
Press
MSL
hPa
Rain since
9am
mm
Dir  Spd
km/h
Gust
km/h
Spd
kts
Gust
kts
20/11:30pm 10.5 - - - - WSW 52 57 28 31 1025.5 - 0.0
20/11:00pm 10.5 - - - - WSW 54 61 29 33 1025.4 - 0.0
20/10:30pm 10.7 - - - - WSW 52 63 28 34 1025.6 - -
20/10:00pm 10.6 - - - - WSW 54 67 29 36 1025.6 - 0.0
20/09:30pm 10.5 - - - - WSW 56 65 30 35 1025.7 - 0.0
20/09:00pm 10.6 - - - - WSW 59 67 32 36 1025.5 1025.6 0.0
20/08:30pm 10.6 - - - - WSW 59 72 32 39 1025.2 - 0.0
20/08:00pm 10.7 - - - - WSW 61 72 33 39 1025.1 - 0.0
20/07:30pm 10.8 - - - - WSW 59 69 32 37 1024.9 - 0.0
20/07:00pm 11.3 - - - - WSW 59 69 32 37 1024.8 - 0.0
20/06:30pm 11.2 - - - - WSW 57 67 31 36 1024.9 - 0.0
20/06:00pm 12.1 - - - - WSW 59 67 32 36 1024.7 1024.7 0.0
20/05:30pm 12.7 - - - - WSW 63 72 34 39 1024.3 - 0.0
20/05:00pm 12.9 - - - - WSW 63 74 34 40 1024.2 - 0.0
20/04:30pm 13.2 - - - - WSW 56 67 30 36 1024.4 - 0.0
20/04:00pm 12.9 - - - - WSW 57 67 31 36 1024.5 - 0.0
20/03:30pm 14.0 - - - - WSW 59 69 32 37 1024.4 - 0.0
20/03:00pm 14.2 - - - - WSW 56 65 30 35 1025.0 1025.1 0.0
20/02:30pm 13.8 - - - - WSW 61 69 33 37 1024.9 - 0.0
20/02:00pm 14.4 - - - - WSW 56 63 30 34 1024.9 - 0.0
20/01:30pm 14.0 - - - - WSW 56 63 30 34 1024.7 - 0.0
20/01:00pm 14.2 - - - - WSW 56 65 30 35 1024.6 - 0.0
20/12:30pm 14.1 - - - - WSW 54 61 29 33 1025.0 - 0.0
20/12:00pm 14.5 - - - - WSW 50 57 27 31 1025.0 1025.1 0.0
20/11:30am 13.9 - - - - WSW 52 59 28 32 1025.1 - 0.0
20/11:00am 13.6 - - - - WSW 56 65 30 35 1025.0 - 0.0
20/10:30am 13.6 - - - - WSW 52 61 28 33 1025.0 - 0.0
20/10:00am 13.1 - - - - WSW 50 57 27 31 1024.5 - 0.0
20/09:30am 13.0 - - - - WSW 54 61 29 33 1024.0 - 0.0
20/09:00am 12.3 - - - - WSW 57 67 31 36 1023.6 1023.6 1.4
20/08:30am 12.3 - - - - WSW 48 56 26 30 1023.5 - 1.4
20/08:00am 11.7 - - - - WSW 59 67 32 36 1023.1 - 1.4
20/07:30am 10.4 - - - - WSW 57 70 31 38 1022.9 - 1.4
20/07:00am 11.5 - - - - WSW 56 63 30 34 1022.4 - 1.4
20/06:30am 11.3 - - - - WSW 59 67 32 36 1021.9 - 1.4
20/06:00am 11.5 - - - - WSW 57 65 31 35 1021.6 1021.6 1.4
20/05:30am 11.6 - - - - W 61 70 33 38 1021.1 - 1.4
20/05:00am 12.0 - - - - W 57 63 31 34 1020.6 - 1.4
20/04:30am 11.9 - - - - W 57 69 31 37 1020.3 - 1.4
20/04:00am 11.1 - - - - W 57 70 31 38 1020.1 - 1.4
20/03:30am 12.2 - - - - W 52 61 28 33 1020.2 - 1.2
20/03:00am 12.4 - - - - W 57 69 31 37 1020.1 1020.1 1.2
20/02:30am 12.4 - - - - W 56 65 30 35 1020.0 - 1.2
20/02:00am 12.3 - - - - W 57 67 31 36 1020.1 - 1.2
20/01:30am 12.4 - - - - W 61 69 33 37 1020.3 - 1.2
20/01:00am 12.4 - - - - W 61 70 33 38 1020.2 - 1.2
20/12:30am 12.6 - - - - W 63 74 34 40 1020.0 - 1.2
20/12:00am 12.6 - - - - W 56 67 30 36 1020.2 1020.2 1.2
 
Date/Time
EDT
Temp
°C
App
Temp
°C
Dew
Point
°C
Rel
Hum
%
Delta-T
°C
Wind Press
QNH
hPa
Press
MSL
hPa
Rain since
9am
mm
Dir  Spd
km/h
Gust
km/h
Spd
kts
Gust
kts
19/11:30pm 12.5 - - - - W 57 67 31 36 1020.3 - 1.2
19/11:00pm 12.7 - - - - W 54 63 29 34 1020.4 - 1.2
19/10:30pm 12.6 - - - - W 48 57 26 31 1020.4 - 1.2
19/10:00pm 12.8 - - - - W 57 67 31 36 1020.1 - 1.2
19/09:30pm 12.7 - - - - W 61 72 33 39 1019.7 - 1.2
19/09:00pm 12.8 - - - - WSW 63 70 34 38 1019.0 1019.1 1.2
19/08:30pm 13.4 - - - - WSW 52 59 28 32 1018.8 - 1.2
19/08:00pm 13.4 - - - - WSW 46 57 25 31 1018.3 - 1.2
19/07:30pm 13.5 - - - - WSW 56 70 30 38 1017.0 - 1.2
19/07:00pm 13.8 - - - - WSW 56 67 30 36 1016.1 - 1.2
19/06:30pm 14.7 - - - - W 57 67 31 36 1015.9 - 1.2
19/06:00pm 15.5 - - - - W 54 67 29 36 1015.5 1015.5 1.2
19/05:52pm 16.2 - - - - WSW 50 61 27 33 1015.6 - 1.2
19/05:41pm 16.9 - - - - W 48 54 26 29 1015.3 - 1.2
19/05:30pm 18.1 - - - - NW 30 41 16 22 1015.1 - 1.2
19/05:00pm 17.9 - - - - NNW 22 26 12 14 1014.9 - 1.2
19/04:30pm 18.5 - - - - NNW 22 28 12 15 1015.1 - 1.2
19/04:00pm 18.8 - - - - NW 22 26 12 14 1015.0 - 1.2
19/03:30pm 18.1 - - - - NW 26 32 14 17 1014.8 - 1.2
19/03:00pm 17.7 - - - - NW 26 28 14 15 1015.0 1015.0 1.2
19/02:30pm 17.1 - - - - NW 26 32 14 17 1015.1 - 1.2
19/02:00pm 16.8 - - - - NNW 28 32 15 17 1015.3 - 1.2
19/01:30pm 16.9 - - - - WNW 37 43 20 23 1015.0 - 1.2
19/01:00pm 15.6 - - - - WNW 32 37 17 20 1015.5 - 1.0
19/12:30pm 15.9 - - - - W 30 33 16 18 1015.1 - 1.0
19/12:00pm 16.0 - - - - W 48 54 26 29 1015.2 1015.2 1.0
19/11:30am 15.4 - - - - W 52 59 28 32 1015.3 - 0.6
19/11:00am 16.0 - - - - W 44 50 24 27 1015.4 - 0.6
19/10:30am 15.5 - - - - W 57 63 31 34 1015.2 - 0.6
19/10:00am 17.7 - - - - W 54 65 29 35 1014.8 - 0.0
19/09:30am 18.8 - - - - W 39 46 21 25 1015.3 - 0.0
19/09:00am 17.9 - - - - W 43 56 23 30 1015.3 1015.3 0.0
19/08:56am 18.1 - - - - W 37 56 20 30 1015.2 - 0.0
19/08:30am 20.8 - - - - N 19 30 10 16 1014.5 - 0.0
19/08:00am 18.5 - - - - N 26 33 14 18 1014.5 - 0.0
19/07:30am 20.6 - - - - N 26 33 14 18 1014.5 - 0.0
19/07:00am 21.2 - - - - N 24 30 13 16 1014.0 - 0.0
19/06:30am 21.3 - - - - N 30 35 16 19 1013.7 - 0.0
19/06:00am 20.9 - - - - N 24 30 13 16 1013.8 1013.8 0.0
19/05:30am 19.8 - - - - NNW 26 32 14 17 1013.8 - 0.0
19/05:00am 19.4 - - - - NNW 30 35 16 19 1013.9 - 0.0
19/04:30am 19.7 - - - - NNW 30 37 16 20 1014.0 - 0.0
19/04:00am 19.8 - - - - N 32 37 17 20 1014.3 - 0.0
19/03:30am 19.1 - - - - N 28 35 15 19 1014.6 - 0.0
19/03:00am 17.6 - - - - N 26 30 14 16 1015.1 1015.1 0.0
19/02:30am 17.3 - - - - NNE 26 32 14 17 1015.6 - 0.0
19/02:00am 16.5 - - - - NNE 26 28 14 15 1016.0 - 0.0
19/01:30am 16.9 - - - - N 26 28 14 15 1016.7 - 0.0
19/01:00am 17.0 - - - - N 26 30 14 16 1017.1 - 0.0
19/12:30am 19.2 - - - - N 28 28 15 15 1017.4 - 0.0
19/12:00am 18.7 - - - - N 30 32 16 17 1017.9 1018.0 0.0
 
Date/Time
EDT
Temp
°C
App
Temp
°C
Dew
Point
°C
Rel
Hum
%
Delta-T
°C
Wind Press
QNH
hPa
Press
MSL
hPa
Rain since
9am
mm
Dir  Spd
km/h
Gust
km/h
Spd
kts
Gust
kts
18/11:30pm 20.7 - - - - N 33 37 18 20 1018.2 - 0.0
18/11:00pm 20.3 - - - - NNE 39 41 21 22 1018.5 - 0.0
18/10:30pm 19.2 - - - - N 35 39 19 21 1019.0 - 0.0
18/10:00pm 18.1 - - - - N 35 41 19 22 1019.1 - 0.0
18/09:30pm 17.2 - - - - NNE 32 35 17 19 1019.4 - 0.0
18/09:00pm 16.5 - - - - NE 26 32 14 17 1019.4 1019.5 0.0
18/08:30pm 16.8 - - - - NE 24 30 13 16 1019.0 - 0.0
18/08:00pm 17.1 - - - - NE 28 37 15 20 1018.7 - 0.0
18/07:30pm 17.7 - - - - ENE 30 39 16 21 1018.5 - 0.0
18/07:00pm 18.2 - - - - ENE 30 39 16 21 1018.2 - 0.0
18/06:30pm 17.9 - - - - ENE 28 37 15 20 1018.3 - 0.0
18/06:00pm 18.3 - - - - ENE 26 35 14 19 1018.5 1018.6 0.0
18/05:30pm 18.4 - - - - ENE 26 33 14 18 1018.6 - 0.0
18/05:00pm 19.3 - - - - ENE 26 33 14 18 1018.8 - 0.0
18/04:30pm 19.3 - - - - ENE 20 24 11 13 1019.0 - 0.0
18/04:00pm 20.4 - - - - ENE 19 24 10 13 1019.3 - 0.0
18/03:30pm 24.1 - - - - NE 17 24 9 13 1019.7 - 0.0
18/03:00pm 23.8 - - - - ENE 17 20 9 11 1020.1 1020.1 0.0
18/02:30pm 23.9 - - - - NE 15 19 8 10 1020.6 - 0.0
18/02:00pm 21.6 - - - - NE 15 19 8 10 1021.0 - 0.0
18/01:30pm 24.3 - - - - NE 13 15 7 8 1021.1 - 0.0
18/01:00pm 25.0 - - - - NNE 13 15 7 8 1021.2 - 0.0
18/12:30pm 23.8 - - - - NNE 13 17 7 9 1021.4 - 0.0
18/12:00pm 23.7 - - - - NNE 15 19 8 10 1021.7 1021.7 0.0
18/11:30am 24.0 - - - - NNE 13 17 7 9 1021.9 - 0.0
18/11:00am 25.2 - - - - N 11 17 6 9 1022.2 - 0.0
18/10:30am 21.9 - - - - N 13 15 7 8 1022.3 - 0.0
18/10:00am 22.9 - - - - N 11 15 6 8 1022.3 - 0.0
18/09:30am 22.3 - - - - N 13 17 7 9 1022.2 - 0.0
18/09:00am 21.1 - - - - N 17 20 9 11 1022.1 1022.1 0.2
18/08:30am 19.5 - - - - N 15 17 8 9 1022.1 - 0.2
18/08:00am 18.0 - - - - N 17 20 9 11 1022.2 - 0.2
18/07:30am 20.2 - - - - NNW 11 13 6 7 1021.9 - 0.2
18/07:00am 18.5 - - - - N 24 26 13 14 1021.8 - 0.2
18/06:30am 15.2 - - - - N 26 32 14 17 1021.6 - 0.2
18/06:00am 13.8 - - - - NNE 20 22 11 12 1021.1 1021.1 0.2
18/05:30am 14.0 - - - - NE 26 30 14 16 1020.7 - 0.0
18/05:00am 14.0 - - - - NE 24 26 13 14 1020.8 - 0.0
18/04:30am 14.1 - - - - NE 26 33 14 18 1020.9 - 0.0
18/04:00am 14.3 - - - - ENE 26 33 14 18 1020.9 - 0.0
18/03:30am 14.3 - - - - ENE 24 28 13 15 1021.0 - 0.0
18/03:00am 14.3 - - - - E 22 30 12 16 1021.2 1021.2 0.0
18/02:30am 14.7 - - - - E 19 24 10 13 1021.5 - 0.0
18/02:00am 14.6 - - - - E 20 22 11 12 1021.8 - 0.0
18/01:30am 14.2 - - - - E 19 20 10 11 1022.2 - 0.0
18/01:00am 16.6 - - - - ENE 20 22 11 12 1022.6 - 0.0
18/12:30am 15.7 - - - - NE 15 19 8 10 1022.9 - 0.0
18/12:00am 16.0 - - - - NE 15 20 8 11 1023.0 1023.0 0.0

Other Formats:

Comma delimited format used in spreadsheet applications
http://www.bom.gov.au/fwo/IDV60801/IDV60801.94949.axf

JavaScript Object Notation format (JSON) in row-major order
http://www.bom.gov.au/fwo/IDV60801/IDV60801.94949.json